Time;durP1;ratioP1;P1;durP2;ratioP2;P2;SDS_P1;SDS_P2;PMS_P1;PMS_P2;Temp;Humidity;BMP_temperature;BMP_pressure;BME280_temperature;BME280_humidity;BME280_pressure;Samples;Min_cycle;Max_cycle;Signal;HPM_P1;HPM_P2
2022/11/15 00:01:31;;;;;;;;;7.50;7.50;;;;;13.41;64.47;100577.56;4982322;28;45402;-65
2022/11/15 00:03:56;;;;;;;;;7.50;6.75;;;;;13.39;64.35;100582.91;4998854;28;46245;-66
2022/11/15 00:06:21;;;;;;;;;3.00;2.50;;;;;13.37;64.50;100582.09;4988552;28;45309;-65
2022/11/15 00:08:47;;;;;;;;;7.75;6.00;;;;;13.35;64.23;100577.75;4982613;28;45278;-66
2022/11/15 00:11:12;;;;;;;;;7.75;6.75;;;;;13.28;64.58;100579.66;4982223;28;45354;-67
2022/11/15 00:13:39;;;;;;;;;6.50;6.25;;;;;13.27;64.47;100572.66;4982208;28;45995;-66
2022/11/15 00:16:04;;;;;;;;;6.50;6.00;;;;;13.22;64.50;100571.91;4982143;28;45258;-66
2022/11/15 00:18:30;;;;;;;;;6.25;6.00;;;;;13.13;64.15;100567.75;4982314;28;45463;-65
2022/11/15 00:21:02;;;;;;;;;9.00;8.75;;;;;13.08;64.42;100567.03;4999267;28;45578;-65
2022/11/15 00:23:27;;;;;;;;;5.75;5.75;;;;;13.03;64.03;100568.91;4965719;28;46115;-65
2022/11/15 00:25:59;;;;;;;;;7.00;7.00;;;;;12.99;64.08;100555.84;4995991;28;45299;-65
2022/11/15 00:28:25;;;;;;;;;6.25;5.00;;;;;12.93;64.48;100566.53;4995373;28;45781;-65
2022/11/15 00:30:50;;;;;;;;;7.00;6.00;;;;;12.85;64.22;100552.69;4995964;28;45652;-65
2022/11/15 00:33:16;;;;;;;;;7.75;7.75;;;;;12.84;64.46;100557.09;4996605;28;45595;-65
2022/11/15 00:35:41;;;;;;;;;5.75;5.00;;;;;12.82;64.34;100560.69;4995548;28;45506;-65
2022/11/15 00:38:07;;;;;;;;;8.00;7.00;;;;;12.75;64.10;100551.19;4996472;28;45467;-65
2022/11/15 00:40:32;;;;;;;;;8.25;7.25;;;;;12.67;63.98;100549.63;4995261;28;46382;-66
2022/11/15 00:42:58;;;;;;;;;5.25;5.25;;;;;12.62;64.49;100553.31;4995352;28;45411;-66
2022/11/15 00:45:24;;;;;;;;;8.00;5.25;;;;;12.56;64.46;100550.81;4993757;28;45619;-65
2022/11/15 00:47:49;;;;;;;;;5.75;5.50;;;;;12.51;64.30;100540.38;4993311;28;45775;-65
2022/11/15 00:50:15;;;;;;;;;6.50;6.25;;;;;12.42;64.51;100546.75;4994379;28;45548;-66
2022/11/15 00:52:40;;;;;;;;;6.75;5.00;;;;;12.37;64.38;100539.88;4987779;28;45412;-65
2022/11/15 00:55:06;;;;;;;;;3.50;3.50;;;;;12.30;64.54;100537.38;4980080;28;45460;-66
2022/11/15 00:57:31;;;;;;;;;10.25;6.50;;;;;12.23;64.61;100530.53;4980440;28;45373;-65
2022/11/15 00:59:57;;;;;;;;;8.50;6.00;;;;;12.22;64.51;100539.34;4984998;28;45215;-65
2022/11/15 01:02:22;;;;;;;;;5.50;4.25;;;;;12.22;64.22;100535.84;4981155;28;45321;-65
2022/11/15 01:04:47;;;;;;;;;7.00;7.00;;;;;12.11;64.27;100531.72;4980577;28;45345;-66
2022/11/15 01:07:13;;;;;;;;;5.75;5.00;;;;;12.13;64.34;100534.28;4981628;28;45337;-65
2022/11/15 01:09:38;;;;;;;;;7.00;6.75;;;;;12.09;64.51;100530.88;4981500;28;45242;-65
2022/11/15 01:12:04;;;;;;;;;7.00;5.50;;;;;12.02;64.59;100529.28;4980935;28;51377;-65
2022/11/15 01:14:29;;;;;;;;;7.75;5.00;;;;;12.01;64.47;100525.78;4981557;28;45493;-65
2022/11/15 01:16:54;;;;;;;;;7.75;4.25;;;;;11.95;64.61;100515.34;4980295;28;45522;-65
2022/11/15 01:19:20;;;;;;;;;5.25;4.25;;;;;11.94;64.46;100516.25;4986134;28;45649;-65
2022/11/15 01:21:48;;;;;;;;;4.25;4.00;;;;;11.91;64.47;100513.72;4981590;28;46034;-65
2022/11/15 01:24:13;;;;;;;;;5.00;5.00;;;;;11.88;64.10;100521.66;4980001;28;45282;-65
2022/11/15 01:26:39;;;;;;;;;6.25;5.00;;;;;11.86;64.30;100508.53;4993715;28;45514;-65
2022/11/15 01:29:04;;;;;;;;;4.25;4.00;;;;;11.82;64.41;100503.38;4979486;28;45552;-66
2022/11/15 01:31:29;;;;;;;;;8.25;5.00;;;;;11.80;64.37;100508.69;4980450;28;46141;-65
2022/11/15 01:33:55;;;;;;;;;4.50;4.50;;;;;11.76;64.48;100499.13;4982695;28;45251;-66
2022/11/15 01:36:22;;;;;;;;;5.00;5.00;;;;;11.73;64.41;100493.06;4981072;28;45175;-65
2022/11/15 01:38:54;;;;;;;;;5.00;5.00;;;;;11.74;64.32;100489.53;4981085;28;45325;-65
2022/11/15 01:41:22;;;;;;;;;5.00;3.75;;;;;11.69;64.34;100493.13;4990574;28;46254;-66
2022/11/15 01:43:57;;;;;;;;;4.00;4.00;;;;;11.68;64.45;100482.63;4993905;28;45446;-65
2022/11/15 01:46:28;;;;;;;;;3.25;3.25;;;;;11.64;64.09;100475.72;4992495;28;45390;-65
2022/11/15 01:48:57;;;;;;;;;4.00;4.00;;;;;11.62;64.26;100488.91;4980474;28;45301;-65
2022/11/15 01:51:26;;;;;;;;;5.50;4.00;;;;;11.57;64.32;100485.50;4980428;28;45634;-66
2022/11/15 01:53:57;;;;;;;;;6.00;4.00;;;;;11.52;64.11;100476.84;4995764;28;45484;-65
2022/11/15 01:56:27;;;;;;;;;5.75;4.75;;;;;11.48;64.33;100472.56;4980661;28;45328;-65
2022/11/15 01:58:56;;;;;;;;;8.50;6.25;;;;;11.45;64.20;100468.22;4980541;28;45433;-65
2022/11/15 02:01:25;;;;;;;;;6.75;4.00;;;;;11.42;64.28;100457.78;4980744;28;45274;-65
2022/11/15 02:03:56;;;;;;;;;5.50;4.25;;;;;11.42;64.10;100456.91;4980507;28;45448;-65
2022/11/15 02:06:22;;;;;;;;;5.50;4.00;;;;;11.36;64.09;100440.34;4980717;28;45501;-65
2022/11/15 02:08:48;;;;;;;;;5.75;5.75;;;;;11.38;63.90;100458.72;4980445;28;45289;-66
2022/11/15 02:11:14;;;;;;;;;4.50;4.50;;;;;11.36;63.95;100448.25;4980516;28;45371;-66
2022/11/15 02:13:39;;;;;;;;;5.25;5.00;;;;;11.28;63.95;100444.06;4980314;28;45398;-66
2022/11/15 02:16:17;;;;;;;;;4.25;4.00;;;;;11.27;63.84;100440.56;4980636;28;45317;-65
2022/11/15 02:18:55;;;;;;;;;5.50;5.50;;;;;11.25;63.87;100436.25;4987173;28;45231;-65
2022/11/15 02:21:39;;;;;;;;;6.25;4.50;;;;;11.25;63.92;100433.63;4984762;28;47390;-65
2022/11/15 02:24:29;;;;;;;;;9.00;5.25;;;;;11.22;63.87;100431.91;4979216;28;45484;-65
2022/11/15 02:27:13;;;;;;;;;7.50;4.25;;;;;11.18;63.97;100420.59;4992713;28;45467;-65
2022/11/15 02:30:02;;;;;;;;;8.00;7.00;;;;;11.14;63.96;100421.53;4980135;28;45317;-65
2022/11/15 02:33:00;;;;;;;;;9.25;8.00;;;;;11.10;63.91;100416.41;4980290;28;47164;-66
2022/11/15 02:35:42;;;;;;;;;17.25;12.75;;;;;11.10;63.84;100416.41;4957629;28;45292;-65
2022/11/15 02:38:22;;;;;;;;;7.50;6.25;;;;;11.06;63.88;100408.56;4979041;28;45298;-65
2022/11/15 02:40:56;;;;;;;;;9.75;7.25;;;;;11.06;63.83;100402.44;4995412;28;45550;-65
2022/11/15 02:46:17;;;;;;;;;6.00;4.25;;;;;11.02;63.68;100385.00;5003232;28;45321;-65
2022/11/15 02:48:43;;;;;;;;;5.00;4.50;;;;;10.99;63.67;100385.06;5003323;28;45535;-65
2022/11/15 02:51:09;;;;;;;;;6.50;3.75;;;;;10.98;63.70;100388.59;5002654;28;45518;-65
2022/11/15 02:53:35;;;;;;;;;4.75;4.75;;;;;10.99;63.75;100390.31;5003039;28;46257;-65
2022/11/15 02:56:01;;;;;;;;;5.00;3.50;;;;;10.97;63.89;100382.47;5003140;28;45329;-65
2022/11/15 02:58:56;;;;;;;;;7.00;5.00;;;;;10.99;63.69;100375.44;5001946;28;45437;-65
2022/11/15 03:01:28;;;;;;;;;6.25;6.25;;;;;11.00;63.57;100374.50;5003373;28;45358;-65
2022/11/15 03:04:02;;;;;;;;;5.00;5.00;;;;;10.99;63.67;100374.53;5002702;28;45340;-65
2022/11/15 03:07:21;;;;;;;;;3.25;2.00;;;;;10.89;63.79;100351.09;5002721;28;45364;-65
2022/11/15 03:09:57;;;;;;;;;3.50;3.50;;;;;11.00;63.75;100363.97;4942302;28;45444;-65
2022/11/15 03:12:30;;;;;;;;;2.25;2.25;;;;;11.01;63.85;100362.25;4994285;28;45562;-66
2022/11/15 03:15:10;;;;;;;;;3.75;3.75;;;;;11.02;63.59;100350.81;4983236;28;45508;-67
2022/11/15 03:17:45;;;;;;;;;3.00;2.75;;;;;11.03;63.72;100350.78;4983297;28;45256;-65
2022/11/15 03:20:13;;;;;;;;;4.75;3.50;;;;;11.04;63.65;100351.63;4990115;28;45230;-65
2022/11/15 03:22:43;;;;;;;;;5.25;1.75;;;;;11.06;63.54;100349.84;4983059;28;45536;-65
2022/11/15 03:25:14;;;;;;;;;1.00;1.00;;;;;11.06;63.63;100341.97;4984239;28;45652;-65
2022/11/15 03:27:46;;;;;;;;;4.25;3.00;;;;;11.08;63.70;100342.81;4982387;28;45560;-65
2022/11/15 03:30:13;;;;;;;;;2.00;2.00;;;;;11.07;63.86;100335.81;4983109;28;45201;-65
2022/11/15 03:32:54;;;;;;;;;4.50;2.75;;;;;11.11;63.74;100336.59;4981446;28;45423;-65
2022/11/15 03:35:30;;;;;;;;;4.25;2.75;;;;;11.11;63.70;100332.19;4982547;28;46174;-65
2022/11/15 03:38:26;;;;;;;;;4.50;3.00;;;;;11.10;63.74;100321.72;4981420;28;45220;-65
2022/11/15 03:40:59;;;;;;;;;2.00;2.00;;;;;11.13;63.64;100321.63;4993329;28;45529;-65
2022/11/15 03:43:30;;;;;;;;;3.50;3.25;;;;;11.18;63.73;100330.28;5002434;28;45183;-65
2022/11/15 03:46:19;;;;;;;;;5.50;5.00;;;;;11.20;63.63;100326.72;5001165;28;47997;-65
2022/11/15 03:48:52;;;;;;;;;2.00;2.00;;;;;11.22;63.62;100326.72;4993035;28;45205;-65
2022/11/15 03:51:18;;;;;;;;;3.75;2.00;;;;;11.20;63.70;100326.72;5001041;28;45414;-65
2022/11/15 03:53:43;;;;;;;;;5.00;2.00;;;;;11.22;63.60;100317.03;4988963;28;45274;-65
2022/11/15 03:56:09;;;;;;;;;2.00;2.00;;;;;11.23;63.48;100320.53;4974734;28;45392;-65
2022/11/15 03:58:34;;;;;;;;;2.00;2.00;;;;;11.22;63.48;100313.56;4995363;28;45365;-65
2022/11/15 04:00:59;;;;;;;;;3.00;2.00;;;;;11.22;63.51;100311.78;4995954;28;45947;-65
2022/11/15 04:03:25;;;;;;;;;3.50;2.00;;;;;11.22;63.52;100309.16;4996026;28;45431;-65
2022/11/15 04:05:50;;;;;;;;;2.00;2.00;;;;;11.24;63.51;100306.47;4994194;28;46118;-65
2022/11/15 04:08:16;;;;;;;;;4.25;3.00;;;;;11.25;63.29;100310.84;4995345;28;45725;-65
2022/11/15 04:10:41;;;;;;;;;3.00;3.00;;;;;11.27;63.42;100306.41;4995208;28;45861;-65
2022/11/15 04:13:06;;;;;;;;;4.00;3.00;;;;;11.27;63.55;100309.03;4995685;28;48321;-65
2022/11/15 04:15:32;;;;;;;;;2.00;2.00;;;;;11.25;63.58;100302.09;4994263;28;47283;-65
2022/11/15 04:17:58;;;;;;;;;2.50;2.25;;;;;11.28;63.35;100302.00;4994437;28;45491;-66
2022/11/15 04:26:01;;;;;;;;;2.25;1.75;;;;;11.30;63.37;100308.09;4987445;28;45747;-65
2022/11/15 04:28:26;;;;;;;;;4.75;3.75;;;;;11.28;63.23;100304.63;4980304;28;45332;-64
2022/11/15 04:30:52;;;;;;;;;2.00;2.00;;;;;11.29;63.50;100299.34;4980510;28;45472;-65
2022/11/15 04:33:17;;;;;;;;;4.25;4.00;;;;;11.27;63.42;100297.63;4981910;28;45282;-65
2022/11/15 04:35:42;;;;;;;;;3.00;3.00;;;;;11.29;63.43;100298.47;4980608;28;46077;-65
2022/11/15 04:38:10;;;;;;;;;3.00;2.75;;;;;11.29;63.54;100294.06;4982165;28;45305;-65
2022/11/15 04:40:37;;;;;;;;;4.00;2.75;;;;;11.30;63.38;100305.47;4995848;28;45425;-65
2022/11/15 04:43:02;;;;;;;;;4.25;4.00;;;;;11.27;63.30;100290.63;5001617;28;45300;-65
2022/11/15 04:45:28;;;;;;;;;2.75;2.75;;;;;11.27;63.30;100285.38;5001414;28;46121;-65
2022/11/15 04:47:53;;;;;;;;;6.50;5.00;;;;;11.27;63.29;100279.22;5001679;28;45194;-65
2022/11/15 04:50:18;;;;;;;;;3.25;2.75;;;;;11.21;63.39;100283.75;5001297;28;45214;-65
2022/11/15 04:52:51;;;;;;;;;4.50;3.50;;;;;11.20;63.40;100278.53;5001501;28;45465;-65
2022/11/15 04:55:16;;;;;;;;;5.00;3.00;;;;;11.17;63.20;100268.94;5001357;28;45431;-65
2022/11/15 04:57:41;;;;;;;;;3.25;2.75;;;;;11.19;63.28;100266.28;5001205;28;45343;-65
2022/11/15 05:00:10;;;;;;;;;3.00;3.00;;;;;11.16;63.56;100263.72;5001147;28;51585;-64
2022/11/15 05:05:20;;;;;;;;;6.00;5.00;;;;;11.11;63.37;100262.97;5000933;28;45676;-65
2022/11/15 05:07:45;;;;;;;;;5.50;4.00;;;;;11.10;63.56;100258.63;4998566;28;45410;-65
2022/11/15 05:10:11;;;;;;;;;5.50;4.50;;;;;11.08;63.36;100258.66;5001183;28;45290;-65
2022/11/15 05:12:36;;;;;;;;;4.50;3.00;;;;;11.02;63.81;100259.66;4999684;28;45455;-65
2022/11/15 05:15:02;;;;;;;;;4.00;3.00;;;;;11.02;63.59;100253.53;4999648;28;46942;-64
2022/11/15 05:17:28;;;;;;;;;4.00;4.00;;;;;10.98;63.55;100243.97;5001126;28;45242;-65
2022/11/15 05:19:53;;;;;;;;;3.00;3.00;;;;;10.97;63.75;100243.13;4997251;28;45266;-64
2022/11/15 05:22:19;;;;;;;;;7.75;3.75;;;;;10.96;63.56;100237.91;4981361;28;45265;-64
2022/11/15 05:24:45;;;;;;;;;3.75;2.00;;;;;10.95;63.92;100234.41;4981639;28;45320;-64
2022/11/15 05:27:10;;;;;;;;;5.00;4.00;;;;;10.95;63.68;100239.66;4981200;28;45362;-64
2022/11/15 05:29:35;;;;;;;;;2.75;2.75;;;;;10.90;63.80;100231.03;4981081;28;45250;-65
2022/11/15 05:32:01;;;;;;;;;4.50;4.50;;;;;10.85;63.77;100236.38;4981312;28;45274;-64
2022/11/15 05:34:26;;;;;;;;;0.75;0.00;;;;;10.88;63.59;100240.72;4980726;28;45450;-64
2022/11/15 05:36:52;;;;;;;;;4.75;4.75;;;;;10.85;64.08;100230.25;4979891;28;45506;-64
2022/11/15 05:39:17;;;;;;;;;6.00;4.00;;;;;10.84;63.98;100246.94;4982783;28;45476;-64
2022/11/15 05:41:51;;;;;;;;;5.00;3.00;;;;;10.82;64.18;100236.47;4999382;28;45291;-64
2022/11/15 05:44:21;;;;;;;;;6.75;4.25;;;;;10.78;64.28;100244.44;5000507;28;46206;-65
2022/11/15 05:46:48;;;;;;;;;3.75;3.00;;;;;10.79;64.33;100236.53;5000431;28;45242;-65
2022/11/15 05:49:18;;;;;;;;;5.50;5.00;;;;;10.78;64.41;100247.97;4998647;28;45469;-65
2022/11/15 05:51:47;;;;;;;;;9.50;4.00;;;;;10.81;64.20;100245.25;4999460;28;45370;-65
2022/11/15 05:54:13;;;;;;;;;7.25;6.25;;;;;10.81;64.48;100239.13;5000146;28;45248;-65
2022/11/15 05:56:39;;;;;;;;;5.00;4.00;;;;;10.83;64.39;100235.56;5000465;28;45384;-65
2022/11/15 05:59:05;;;;;;;;;4.00;3.00;;;;;10.86;64.43;100237.25;5000311;28;45302;-64
2022/11/15 06:01:31;;;;;;;;;2.50;2.00;;;;;10.87;64.51;100223.22;4999389;28;45476;-65
2022/11/15 06:03:56;;;;;;;;;5.00;4.00;;;;;10.86;64.63;100216.22;4999885;28;45435;-65
2022/11/15 06:06:21;;;;;;;;;6.00;4.25;;;;;10.90;64.51;100217.88;5000080;28;50314;-65
2022/11/15 06:08:47;;;;;;;;;5.00;4.00;;;;;10.90;64.59;100217.88;5000196;28;45377;-64
2022/11/15 06:11:13;;;;;;;;;4.00;4.00;;;;;10.95;64.52;100212.53;5000268;28;45243;-65
2022/11/15 06:13:38;;;;;;;;;6.00;5.00;;;;;10.96;64.47;100206.38;4999770;28;46806;-65
2022/11/15 06:16:04;;;;;;;;;6.50;3.75;;;;;10.99;64.52;100194.00;5000385;28;45223;-65
2022/11/15 06:18:33;;;;;;;;;4.75;3.50;;;;;11.02;64.54;100204.44;4998789;28;45339;-65
2022/11/15 06:20:59;;;;;;;;;7.75;4.75;;;;;11.04;64.47;100204.41;4988533;28;45457;-65
2022/11/15 06:23:25;;;;;;;;;3.50;3.50;;;;;11.09;64.58;100201.66;4980275;28;47182;-65
2022/11/15 06:25:50;;;;;;;;;6.75;5.50;;;;;11.11;64.43;100186.72;4995112;28;45314;-65
2022/11/15 06:28:16;;;;;;;;;6.00;4.25;;;;;11.13;64.42;100187.53;4982280;28;45397;-64
2022/11/15 06:30:41;;;;;;;;;4.00;4.00;;;;;11.12;64.65;100180.53;4979128;28;45668;-67
2022/11/15 06:33:08;;;;;;;;;5.00;5.00;;;;;11.14;64.63;100184.00;4980043;28;46230;-66
2022/11/15 06:35:35;;;;;;;;;5.75;5.75;;;;;11.14;64.63;100176.09;4978895;28;45275;-69
2022/11/15 06:38:08;;;;;;;;;4.50;4.25;;;;;11.16;64.60;100163.78;4979435;28;45174;-71
2022/11/15 06:40:36;;;;;;;;;3.75;3.75;;;;;11.17;64.54;100158.50;4993844;28;45230;-68
2022/11/15 06:43:02;;;;;;;;;7.00;6.75;;;;;11.19;64.51;100155.81;5015095;28;46102;-68
2022/11/15 06:45:27;;;;;;;;;6.75;5.25;;;;;11.20;63.90;100152.28;4998247;28;45228;-67
2022/11/15 06:47:53;;;;;;;;;5.00;5.00;;;;;11.20;64.68;100157.53;4996911;28;45421;-72
2022/11/15 06:50:19;;;;;;;;;6.00;6.00;;;;;11.24;64.55;100161.81;4977707;28;45455;-67
2022/11/15 06:52:44;;;;;;;;;9.00;7.75;;;;;11.24;64.47;100153.06;4977621;28;46558;-68
2022/11/15 06:55:09;;;;;;;;;9.25;8.25;;;;;11.26;64.44;100152.13;4983428;28;45814;-68
2022/11/15 06:57:35;;;;;;;;;6.00;6.00;;;;;11.27;64.37;100145.97;4990962;28;45450;-67
2022/11/15 07:00:04;;;;;;;;;4.00;4.00;;;;;11.27;64.59;100148.59;4990926;28;45340;-67
2022/11/15 07:02:29;;;;;;;;;8.50;6.00;;;;;11.28;64.30;100139.81;4992183;28;46509;-67
2022/11/15 07:04:54;;;;;;;;;4.00;4.00;;;;;11.27;64.58;100137.19;4991799;28;45364;-67
2022/11/15 07:07:19;;;;;;;;;6.75;6.75;;;;;11.27;64.64;100143.34;4992530;28;45427;-66
2022/11/15 07:09:45;;;;;;;;;5.50;4.00;;;;;11.28;64.45;100131.91;4992137;28;46236;-66
2022/11/15 07:12:10;;;;;;;;;4.00;3.25;;;;;11.22;64.53;100124.19;4990541;28;47184;-68
2022/11/15 07:14:36;;;;;;;;;6.00;6.00;;;;;11.24;64.59;100118.88;4991131;28;45447;-65
2022/11/15 07:17:03;;;;;;;;;5.75;4.75;;;;;11.19;64.69;100109.34;4990421;28;45399;-65
2022/11/15 07:19:29;;;;;;;;;5.50;5.00;;;;;11.22;64.68;100111.88;4992984;28;45861;-67
2022/11/15 07:21:54;;;;;;;;;6.50;5.25;;;;;11.22;64.61;100111.88;4994790;28;49595;-67
2022/11/15 07:24:20;;;;;;;;;5.75;4.50;;;;;11.22;64.63;100117.16;4993428;28;45525;-67
2022/11/15 07:26:45;;;;;;;;;3.00;3.00;;;;;11.20;64.55;100115.47;4995676;28;45287;-66
2022/11/15 07:29:10;;;;;;;;;5.50;5.50;;;;;11.20;64.80;100120.72;4995209;28;45483;-67
2022/11/15 07:31:36;;;;;;;;;5.50;4.50;;;;;11.16;64.82;100113.84;5000365;28;45496;-67
2022/11/15 07:34:02;;;;;;;;;4.00;4.00;;;;;11.16;64.49;100117.31;4998550;28;45525;-67
2022/11/15 07:36:27;;;;;;;;;4.25;4.25;;;;;11.17;64.90;100115.53;4998307;28;45480;-67
2022/11/15 07:38:53;;;;;;;;;5.00;4.00;;;;;11.18;64.99;100096.22;4996191;28;45598;-67
2022/11/15 07:41:18;;;;;;;;;4.50;4.50;;;;;11.15;64.71;100101.56;4999501;28;46314;-67
2022/11/15 07:43:43;;;;;;;;;3.25;3.00;;;;;11.17;64.99;100112.91;4998283;28;45393;-67
2022/11/15 07:46:09;;;;;;;;;6.00;6.00;;;;;11.18;64.97;100112.00;4995282;28;45324;-67
2022/11/15 07:48:35;;;;;;;;;4.25;4.25;;;;;11.19;64.95;100108.47;4985646;28;45363;-67
2022/11/15 07:51:01;;;;;;;;;5.00;5.00;;;;;11.16;65.10;100103.31;4979480;28;47035;-67
2022/11/15 07:53:26;;;;;;;;;3.00;3.00;;;;;11.18;65.16;100093.59;4980505;28;45306;-67
2022/11/15 07:55:53;;;;;;;;;5.50;4.25;;;;;11.19;65.38;100087.44;4994390;28;45661;-66
2022/11/15 07:58:19;;;;;;;;;5.50;5.00;;;;;11.21;65.15;100078.59;4988582;28;45408;-67
2022/11/15 08:00:44;;;;;;;;;6.00;4.25;;;;;11.21;65.25;100081.22;4988072;28;45696;-67
2022/11/15 08:03:12;;;;;;;;;5.00;4.00;;;;;11.23;65.24;100078.53;4983646;28;45533;-66
2022/11/15 08:05:39;;;;;;;;;4.50;3.50;;;;;11.27;65.41;100067.06;4998256;28;45424;-66
2022/11/15 08:08:05;;;;;;;;;7.75;6.75;;;;;11.29;65.48;100069.63;4982358;28;45240;-66
2022/11/15 08:10:31;;;;;;;;;5.75;4.50;;;;;11.32;65.48;100062.53;4982011;28;46142;-66
2022/11/15 08:13:01;;;;;;;;;6.75;4.50;;;;;11.35;65.45;100058.94;4982409;28;45274;-66
2022/11/15 08:15:27;;;;;;;;;3.75;3.00;;;;;11.38;65.46;100051.84;4989284;28;45279;-66
2022/11/15 08:17:57;;;;;;;;;5.75;4.50;;;;;11.44;65.53;100049.94;4988237;28;45453;-66
2022/11/15 08:20:23;;;;;;;;;6.50;6.50;;;;;11.44;65.61;100052.56;4987909;28;45349;-66
2022/11/15 08:22:48;;;;;;;;;4.75;4.75;;;;;11.48;65.66;100049.81;4982018;28;45525;-66
2022/11/15 08:25:15;;;;;;;;;6.25;5.00;;;;;11.49;65.36;100045.41;4981076;28;45385;-66
2022/11/15 08:27:40;;;;;;;;;4.75;4.75;;;;;11.52;65.61;100055.81;4981951;28;45346;-67
2022/11/15 08:30:06;;;;;;;;;6.50;5.00;;;;;11.58;65.62;100060.91;4981923;28;46297;-66
2022/11/15 08:32:32;;;;;;;;;7.75;5.00;;;;;11.61;65.53;100050.31;4982091;28;45251;-65
2022/11/15 08:34:57;;;;;;;;;4.25;4.25;;;;;11.66;65.54;100050.16;4981923;28;45392;-66
2022/11/15 08:37:22;;;;;;;;;3.00;3.00;;;;;11.73;65.84;100043.81;4982323;28;45345;-66
2022/11/15 08:39:48;;;;;;;;;6.75;4.50;;;;;11.79;65.58;100043.63;4989104;28;46185;-66
2022/11/15 08:42:14;;;;;;;;;4.75;3.50;;;;;11.79;65.58;100033.09;5001541;28;45234;-66
2022/11/15 08:44:40;;;;;;;;;7.50;3.75;;;;;11.90;65.48;100042.41;5001657;28;45166;-66
2022/11/15 08:47:05;;;;;;;;;5.00;4.00;;;;;11.96;65.89;100037.00;5001623;28;45399;-67
2022/11/15 08:49:30;;;;;;;;;5.00;3.25;;;;;12.00;65.66;100023.69;4999736;28;45291;-67
2022/11/15 08:51:56;;;;;;;;;7.25;5.50;;;;;12.08;65.75;100034.00;5001619;28;45218;-66
2022/11/15 08:54:21;;;;;;;;;5.00;3.50;;;;;12.16;65.52;100024.09;5001471;28;45226;-67
2022/11/15 08:56:46;;;;;;;;;5.00;3.00;;;;;12.22;65.74;100015.09;5000283;28;45636;-67
2022/11/15 08:59:12;;;;;;;;;5.00;3.00;;;;;12.26;65.58;100003.56;5001123;28;45419;-66
2022/11/15 09:01:37;;;;;;;;;4.25;3.25;;;;;12.33;65.53;100005.06;5001477;28;45241;-67
2022/11/15 09:04:03;;;;;;;;;2.75;2.25;;;;;12.37;65.66;99999.72;4999627;28;45355;-67
2022/11/15 09:06:29;;;;;;;;;6.00;5.00;;;;;12.41;65.50;99991.63;4992535;28;45336;-66
2022/11/15 09:08:54;;;;;;;;;2.00;2.00;;;;;12.48;65.63;99989.69;4979972;28;46222;-67
2022/11/15 09:11:21;;;;;;;;;4.25;3.75;;;;;12.53;65.40;99979.84;4981535;28;45375;-66
2022/11/15 09:13:47;;;;;;;;;4.50;4.50;;;;;12.57;65.62;99993.78;4981417;28;45290;-66
2022/11/15 09:16:12;;;;;;;;;3.00;3.00;;;;;12.57;65.52;99988.50;4981407;28;45413;-67
2022/11/15 09:18:38;;;;;;;;;5.00;3.00;;;;;12.63;65.13;99975.97;4981226;28;45284;-67
2022/11/15 09:21:04;;;;;;;;;5.50;4.75;;;;;12.65;65.20;99991.72;4991774;28;45274;-67
2022/11/15 09:23:29;;;;;;;;;3.75;3.75;;;;;12.64;65.11;99977.69;4981420;28;45221;-66
2022/11/15 09:26:02;;;;;;;;;5.00;5.00;;;;;12.67;64.94;99974.94;4981114;28;45472;-66
2022/11/15 09:28:29;;;;;;;;;4.00;3.00;;;;;12.71;65.36;99980.97;4979348;28;46850;-66
2022/11/15 09:31:03;;;;;;;;;4.75;3.75;;;;;12.75;64.96;99976.44;4981115;28;45293;-66
2022/11/15 09:33:28;;;;;;;;;9.00;7.50;;;;;12.79;65.13;99970.16;4981031;28;45226;-66
2022/11/15 09:35:58;;;;;;;;;7.75;6.25;;;;;12.80;65.31;99972.75;4980912;28;45435;-66
2022/11/15 09:38:24;;;;;;;;;9.25;9.25;;;;;12.84;65.26;99981.38;4980893;28;45431;-66
2022/11/15 09:41:13;;;;;;;;;5.25;3.75;;;;;12.90;64.77;99982.97;4994902;28;45340;-66
2022/11/15 09:43:58;;;;;;;;;5.50;5.25;;;;;12.93;65.02;99983.72;4981273;28;45304;-67
2022/11/15 09:46:55;;;;;;;;;4.75;4.75;;;;;12.95;65.04;99978.38;4980953;28;45234;-66
2022/11/15 09:49:21;;;;;;;;;7.75;4.00;;;;;12.93;64.96;99988.97;4980330;28;45480;-67
2022/11/15 09:51:50;;;;;;;;;6.00;4.00;;;;;12.99;65.00;99990.53;4980889;28;45366;-66
2022/11/15 09:54:32;;;;;;;;;6.00;4.50;;;;;13.03;65.00;99981.59;4978956;28;45406;-66
2022/11/15 09:57:18;;;;;;;;;4.50;4.50;;;;;13.03;65.10;99986.00;4980750;28;45474;-66
2022/11/15 09:59:51;;;;;;;;;3.00;3.00;;;;;13.05;65.00;99987.66;4980589;28;47174;-66
2022/11/15 10:02:33;;;;;;;;;4.00;4.00;;;;;13.10;64.96;99987.50;4979433;28;45260;-66
2022/11/15 10:05:01;;;;;;;;;5.75;4.00;;;;;13.08;64.67;99981.41;4989191;28;45274;-66
2022/11/15 10:08:00;;;;;;;;;4.25;3.00;;;;;13.06;65.10;99973.56;4998807;28;45554;-66
2022/11/15 10:10:40;;;;;;;;;6.75;5.50;;;;;13.08;65.04;99970.88;4999788;28;47082;-66
2022/11/15 10:13:16;;;;;;;;;10.75;8.50;;;;;13.08;64.75;99961.19;5000282;28;45247;-66
2022/11/15 10:15:45;;;;;;;;;7.75;6.75;;;;;13.06;64.90;99963.03;5000215;28;45281;-66
2022/11/15 10:18:43;;;;;;;;;8.50;6.75;;;;;13.05;64.93;99955.16;5015312;28;45394;-66
2022/11/15 10:21:17;;;;;;;;;5.25;5.25;;;;;13.04;65.12;99946.38;4991532;28;46297;-66
2022/11/15 10:23:43;;;;;;;;;6.25;6.00;;;;;13.01;64.60;99934.16;4980339;28;45254;-65
2022/11/15 10:26:13;;;;;;;;;4.50;4.50;;;;;13.06;65.08;99931.38;4980485;28;45516;-65
2022/11/15 10:28:39;;;;;;;;;5.75;4.75;;;;;13.06;65.12;99917.34;4979069;28;45489;-65
2022/11/15 10:31:21;;;;;;;;;5.00;5.00;;;;;13.08;64.87;99911.06;4980266;28;46972;-65
2022/11/15 10:33:47;;;;;;;;;4.25;4.00;;;;;13.08;65.23;99928.66;4980054;28;45246;-65
2022/11/15 10:36:12;;;;;;;;;3.75;3.75;;;;;13.08;65.41;99936.56;4980577;28;45323;-65
2022/11/15 10:38:57;;;;;;;;;8.75;6.50;;;;;13.10;65.10;99917.13;4980201;28;45575;-65
2022/11/15 10:41:22;;;;;;;;;4.75;4.75;;;;;13.10;65.14;99908.38;4994535;28;45357;-65
2022/11/15 10:44:06;;;;;;;;;5.25;5.25;;;;;13.12;65.18;99909.19;4999864;28;45416;-65
2022/11/15 10:46:33;;;;;;;;;6.00;5.50;;;;;13.12;65.36;99896.00;4999923;28;45210;-65
2022/11/15 10:49:24;;;;;;;;;3.00;3.00;;;;;13.13;65.20;99895.94;4999334;28;45396;-64
2022/11/15 10:51:53;;;;;;;;;7.00;5.25;;;;;13.15;65.56;99880.03;4999834;28;46718;-65
2022/11/15 10:54:49;;;;;;;;;4.00;4.00;;;;;13.19;65.52;99879.00;4998246;28;45481;-65
2022/11/15 10:57:18;;;;;;;;;5.25;4.75;;;;;13.21;65.26;99881.59;5014913;28;45475;-65
2022/11/15 10:59:48;;;;;;;;;9.50;5.25;;;;;13.17;65.87;99875.56;4999442;28;45490;-66
2022/11/15 11:02:34;;;;;;;;;5.00;4.00;;;;;13.18;65.58;99874.63;4999468;28;45447;-66
2022/11/15 11:05:00;;;;;;;;;4.25;4.25;;;;;13.19;65.24;99859.69;5000314;28;45477;-66
2022/11/15 11:07:31;;;;;;;;;3.00;3.00;;;;;13.16;65.68;99872.06;4987076;28;45331;-66
2022/11/15 11:10:05;;;;;;;;;5.00;5.00;;;;;13.15;65.81;99851.88;4983390;28;45331;-67
2022/11/15 11:12:34;;;;;;;;;8.25;6.00;;;;;13.18;66.11;99856.16;4981521;28;47515;-66
2022/11/15 11:15:05;;;;;;;;;5.50;5.50;;;;;13.18;65.93;99856.16;4983337;28;45346;-66
2022/11/15 11:18:05;;;;;;;;;7.75;6.25;;;;;13.12;65.93;99857.28;4981951;28;45453;-66
2022/11/15 11:20:38;;;;;;;;;5.00;5.00;;;;;13.12;65.83;99840.59;4994052;28;45309;-65
2022/11/15 11:23:24;;;;;;;;;2.00;2.00;;;;;13.09;65.78;99841.56;4983284;28;46576;-66
2022/11/15 11:26:14;;;;;;;;;4.25;4.00;;;;;13.13;65.84;99834.38;4990322;28;45341;-66
2022/11/15 11:29:30;;;;;;;;;7.75;5.75;;;;;13.06;66.25;99835.56;4985617;28;45386;-66
2022/11/15 11:32:24;;;;;;;;;6.75;6.25;;;;;13.09;65.87;99811.69;4970408;28;45398;-65
2022/11/15 11:34:56;;;;;;;;;5.00;5.00;;;;;13.12;66.29;99824.78;4979301;28;45451;-66
2022/11/15 11:37:45;;;;;;;;;9.25;8.75;;;;;13.14;65.91;99817.66;4982951;28;45370;-66
2022/11/15 11:40:43;;;;;;;;;6.50;4.00;;;;;13.13;66.05;99814.16;4989963;28;45491;-66
2022/11/15 11:43:14;;;;;;;;;4.75;4.75;;;;;13.10;66.31;99805.50;5002403;28;45499;-66
2022/11/15 11:45:42;;;;;;;;;6.00;6.00;;;;;13.10;66.26;99800.22;5001142;28;47011;-66
2022/11/15 11:48:40;;;;;;;;;7.00;6.00;;;;;13.11;66.55;99817.78;5002372;28;45238;-66
2022/11/15 11:51:12;;;;;;;;;6.75;5.00;;;;;13.11;66.32;99809.88;4972123;28;45519;-67